Time;durP1;ratioP1;P1;durP2;ratioP2;P2;SDS_P1;SDS_P2;PMS_P1;PMS_P2;Temp;Humidity;BMP_temperature;BMP_pressure;BME280_temperature;BME280_humidity;BME280_pressure;Samples;Min_cycle;Max_cycle;Signal;HPM_P1;HPM_P2
2023/10/26 00:01:22;;;;;;;4.13;1.10;;;10.10;99.90;;;;;;5084292;28;20054;-67
2023/10/26 00:03:48;;;;;;;1.38;1.05;;;10.20;99.90;;;;;;5080361;28;20502;-67
2023/10/26 00:06:13;;;;;;;2.13;1.10;;;10.10;99.90;;;;;;5090866;28;20512;-67
2023/10/26 00:08:39;;;;;;;2.15;1.17;;;10.10;99.90;;;;;;5087510;28;20039;-68
2023/10/26 00:11:04;;;;;;;2.53;1.75;;;10.10;99.90;;;;;;5088038;28;20510;-67
2023/10/26 00:13:30;;;;;;;3.90;1.83;;;10.10;99.90;;;;;;5086210;28;20569;-67
2023/10/26 00:15:55;;;;;;;1.50;0.60;;;10.00;99.90;;;;;;5090611;28;20517;-67
2023/10/26 00:18:21;;;;;;;1.63;1.52;;;10.00;99.90;;;;;;5091197;28;20111;-68
2023/10/26 00:20:48;;;;;;;1.67;1.13;;;10.10;99.90;;;;;;5087439;28;20277;-68
2023/10/26 00:23:14;;;;;;;3.33;1.75;;;10.10;99.90;;;;;;5084096;28;20047;-69
2023/10/26 00:25:39;;;;;;;0.88;0.73;;;10.10;99.90;;;;;;5090290;27;20028;-68
2023/10/26 00:28:05;;;;;;;1.27;0.85;;;10.10;99.90;;;;;;5085967;28;20048;-69
2023/10/26 00:30:30;;;;;;;2.08;1.20;;;10.10;99.90;;;;;;5087668;28;20035;-69
2023/10/26 00:32:56;;;;;;;1.80;1.20;;;10.10;99.90;;;;;;5083807;27;20090;-68
2023/10/26 00:35:22;;;;;;;2.13;0.90;;;10.10;99.90;;;;;;5079827;28;20035;-69
2023/10/26 00:37:47;;;;;;;4.60;1.80;;;10.10;99.90;;;;;;5068180;27;20087;-69
2023/10/26 00:40:13;;;;;;;7.45;1.02;;;10.10;99.90;;;;;;5089608;27;20039;-68
2023/10/26 00:42:38;;;;;;;1.15;0.32;;;10.10;99.90;;;;;;5075537;27;20036;-68
2023/10/26 00:45:05;;;;;;;1.77;1.23;;;10.10;99.90;;;;;;5076835;27;20040;-68
2023/10/26 00:47:31;;;;;;;0.60;0.60;;;10.00;99.90;;;;;;5089934;27;20097;-69
2023/10/26 00:49:58;;;;;;;1.17;1.10;;;10.10;99.90;;;;;;5087675;27;20076;-68
2023/10/26 00:52:24;;;;;;;1.95;1.50;;;10.00;99.90;;;;;;5073589;27;20431;-68
2023/10/26 00:54:51;;;;;;;1.48;1.38;;;10.00;99.90;;;;;;5091194;27;20096;-69
2023/10/26 00:57:19;;;;;;;2.92;1.70;;;10.00;99.90;;;;;;5090179;28;20194;-68
2023/10/26 00:59:46;;;;;;;1.65;0.80;;;10.00;99.90;;;;;;5081525;28;20047;-67
2023/10/26 01:02:13;;;;;;;3.60;2.63;;;10.00;99.90;;;;;;5091351;28;20040;-68
2023/10/26 01:04:40;;;;;;;3.95;1.92;;;10.00;99.90;;;;;;5092083;27;20054;-68
2023/10/26 01:07:05;;;;;;;4.40;1.75;;;10.00;99.90;;;;;;5090861;27;20035;-67
2023/10/26 01:09:31;;;;;;;2.33;1.02;;;10.00;99.90;;;;;;5089955;27;20509;-68
2023/10/26 01:11:57;;;;;;;2.58;1.52;;;10.00;99.90;;;;;;5092768;28;20574;-70
2023/10/26 01:14:23;;;;;;;2.05;1.77;;;10.00;99.90;;;;;;5094972;28;20039;-68
2023/10/26 01:16:49;;;;;;;3.38;1.80;;;10.10;99.90;;;;;;5094057;27;20039;-70
2023/10/26 01:19:15;;;;;;;2.75;1.48;;;10.10;99.90;;;;;;5092310;27;20104;-67
2023/10/26 01:21:53;;;;;;;2.40;2.15;;;10.10;99.90;;;;;;5087312;28;20044;-67
2023/10/26 01:24:19;;;;;;;5.25;2.50;;;10.00;99.90;;;;;;5089242;27;20130;-67
2023/10/26 01:26:45;;;;;;;3.70;1.17;;;10.00;99.90;;;;;;5104576;27;20036;-67
2023/10/26 01:29:11;;;;;;;3.63;1.85;;;9.90;99.90;;;;;;5086285;28;20039;-67
2023/10/26 01:31:37;;;;;;;0.70;0.70;;;10.00;99.90;;;;;;5113052;27;20381;-68
2023/10/26 01:34:03;;;;;;;1.92;1.17;;;10.00;99.90;;;;;;5082706;27;20443;-67
2023/10/26 01:36:29;;;;;;;3.17;2.17;;;9.90;99.90;;;;;;5079491;27;20074;-67
2023/10/26 01:38:55;;;;;;;2.33;1.83;;;9.90;99.90;;;;;;5086536;27;20364;-67
2023/10/26 01:41:21;;;;;;;4.72;1.67;;;9.90;99.90;;;;;;5083692;28;20093;-66
2023/10/26 01:43:47;;;;;;;1.88;1.73;;;9.90;99.90;;;;;;5086864;28;20047;-67
2023/10/26 01:46:12;;;;;;;4.68;1.92;;;9.90;99.90;;;;;;5082366;28;20183;-67
2023/10/26 01:48:38;;;;;;;0.30;0.30;;;9.90;99.90;;;;;;5088347;28;20039;-66
2023/10/26 01:51:04;;;;;;;1.35;1.25;;;9.90;99.90;;;;;;5084720;28;20450;-67
2023/10/26 01:53:30;;;;;;;2.08;1.77;;;9.90;99.90;;;;;;5081198;28;20127;-67
2023/10/26 01:55:55;;;;;;;3.85;0.73;;;9.90;99.90;;;;;;5085718;28;20063;-67
2023/10/26 01:58:21;;;;;;;3.65;1.35;;;9.90;99.90;;;;;;5097747;27;20046;-67
2023/10/26 02:00:47;;;;;;;1.75;1.65;;;9.90;99.90;;;;;;5090907;28;20474;-67
2023/10/26 02:03:12;;;;;;;2.75;1.25;;;9.80;99.90;;;;;;5087400;28;20036;-68
2023/10/26 02:05:38;;;;;;;1.08;1.08;;;9.80;99.90;;;;;;5088723;27;20027;-68
2023/10/26 02:08:03;;;;;;;3.50;1.90;;;9.80;99.90;;;;;;5091095;27;20059;-67
2023/10/26 02:10:29;;;;;;;2.78;1.17;;;9.80;99.90;;;;;;5089483;28;20028;-67
2023/10/26 02:12:58;;;;;;;5.07;1.55;;;9.80;99.90;;;;;;5088490;28;20051;-67
2023/10/26 02:15:24;;;;;;;3.42;1.38;;;9.80;99.90;;;;;;5095101;27;20126;-67
2023/10/26 02:17:50;;;;;;;1.65;1.55;;;9.70;99.90;;;;;;5082087;27;20585;-67
2023/10/26 02:20:15;;;;;;;5.03;1.15;;;9.70;99.90;;;;;;5089212;27;20066;-67
2023/10/26 02:22:41;;;;;;;2.97;1.90;;;9.80;99.90;;;;;;5090234;27;20058;-67
2023/10/26 02:25:07;;;;;;;0.38;0.38;;;9.80;99.90;;;;;;5095661;27;20041;-67
2023/10/26 02:27:33;;;;;;;7.05;2.85;;;9.80;99.90;;;;;;5086047;28;20060;-68
2023/10/26 02:29:59;;;;;;;7.28;1.60;;;9.80;99.90;;;;;;5111890;27;20047;-68
2023/10/26 02:32:25;;;;;;;3.38;1.77;;;9.80;99.90;;;;;;5084210;28;20393;-68
2023/10/26 02:34:51;;;;;;;2.10;1.98;;;9.80;99.90;;;;;;5082423;28;20066;-67
2023/10/26 02:37:18;;;;;;;2.88;1.67;;;9.70;99.90;;;;;;5086476;28;20120;-68
2023/10/26 02:39:44;;;;;;;4.43;2.70;;;9.80;99.90;;;;;;5093656;27;20406;-67
2023/10/26 02:42:10;;;;;;;3.38;1.02;;;9.70;99.90;;;;;;5090908;27;20035;-67
2023/10/26 02:44:36;;;;;;;2.83;1.42;;;9.70;99.90;;;;;;5092024;28;20043;-67
2023/10/26 02:47:01;;;;;;;2.97;2.65;;;9.70;99.90;;;;;;5088594;28;20047;-67
2023/10/26 02:49:27;;;;;;;5.47;1.58;;;9.70;99.90;;;;;;5093251;28;20237;-66
2023/10/26 02:51:52;;;;;;;1.65;0.85;;;9.70;99.90;;;;;;5088429;27;20397;-67
2023/10/26 02:54:19;;;;;;;2.00;1.80;;;9.60;99.90;;;;;;5083828;28;20482;-66
2023/10/26 02:56:44;;;;;;;10.95;1.20;;;9.70;99.90;;;;;;5077073;28;20039;-67
2023/10/26 02:59:11;;;;;;;2.78;2.00;;;9.70;99.90;;;;;;5082178;28;20456;-67
2023/10/26 03:01:37;;;;;;;1.35;1.25;;;9.70;99.90;;;;;;5077929;28;20390;-67
2023/10/26 03:04:03;;;;;;;4.57;2.08;;;9.50;99.90;;;;;;5078669;28;20032;-67
2023/10/26 03:06:29;;;;;;;1.88;1.58;;;9.60;99.90;;;;;;5082070;28;20043;-67
2023/10/26 03:08:54;;;;;;;1.00;0.80;;;9.60;99.90;;;;;;5094429;28;20070;-67
2023/10/26 03:11:20;;;;;;;2.70;1.90;;;9.60;99.90;;;;;;5078668;28;20071;-67
2023/10/26 03:13:45;;;;;;;4.63;1.33;;;9.60;99.90;;;;;;5074277;28;20043;-67
2023/10/26 03:16:11;;;;;;;2.25;2.05;;;9.60;99.90;;;;;;5078814;28;20055;-67
2023/10/26 03:18:37;;;;;;;1.23;1.13;;;9.50;99.90;;;;;;5115788;27;20035;-67
2023/10/26 03:21:04;;;;;;;2.70;1.45;;;9.60;99.90;;;;;;5064009;28;20061;-67
2023/10/26 03:23:29;;;;;;;2.05;1.35;;;9.50;99.90;;;;;;5085920;28;20494;-67
2023/10/26 03:25:55;;;;;;;1.58;1.48;;;9.50;99.90;;;;;;5117166;27;20082;-67
2023/10/26 03:28:20;;;;;;;4.18;1.88;;;9.50;99.90;;;;;;5086980;28;20036;-67
2023/10/26 03:30:46;;;;;;;1.35;1.02;;;9.40;99.90;;;;;;5082937;28;20031;-67
2023/10/26 03:33:12;;;;;;;1.58;1.00;;;9.40;99.90;;;;;;5090932;28;20051;-67
2023/10/26 03:35:37;;;;;;;1.40;1.23;;;9.40;99.90;;;;;;5086530;28;20040;-67
2023/10/26 03:38:03;;;;;;;2.22;1.95;;;9.50;99.90;;;;;;5084073;28;20101;-67
2023/10/26 03:40:29;;;;;;;4.32;2.05;;;9.50;99.90;;;;;;5090384;28;20525;-67
2023/10/26 03:42:54;;;;;;;2.25;1.05;;;9.40;99.90;;;;;;5068966;28;20474;-67
2023/10/26 03:45:20;;;;;;;2.15;1.05;;;9.40;99.90;;;;;;5079618;28;20040;-67
2023/10/26 03:47:45;;;;;;;1.38;0.77;;;9.30;99.90;;;;;;5076985;28;20494;-67
2023/10/26 03:50:11;;;;;;;1.30;0.90;;;9.30;99.90;;;;;;5080090;28;20028;-67
2023/10/26 03:52:37;;;;;;;4.93;1.95;;;9.30;99.90;;;;;;5061126;28;20046;-67
2023/10/26 03:55:04;;;;;;;0.82;0.82;;;9.40;99.90;;;;;;5086604;28;20069;-67
2023/10/26 03:57:31;;;;;;;3.67;2.08;;;9.40;99.90;;;;;;5082559;27;20123;-67
2023/10/26 03:59:57;;;;;;;2.00;1.77;;;9.30;99.90;;;;;;5115954;27;20051;-67
2023/10/26 04:02:22;;;;;;;4.70;1.45;;;9.30;99.90;;;;;;5085148;27;20039;-67
2023/10/26 04:04:50;;;;;;;0.93;0.85;;;9.30;99.90;;;;;;5095036;28;20059;-67
2023/10/26 04:07:16;;;;;;;3.72;2.28;;;9.20;99.90;;;;;;5079386;27;20110;-67
2023/10/26 04:09:41;;;;;;;2.78;2.35;;;9.30;99.90;;;;;;5091302;27;20042;-66
2023/10/26 04:12:07;;;;;;;1.20;1.08;;;9.30;99.90;;;;;;5095146;27;20394;-67
2023/10/26 04:14:33;;;;;;;5.07;1.70;;;9.20;99.90;;;;;;5091668;28;20505;-67
2023/10/26 04:16:58;;;;;;;1.35;1.20;;;9.10;99.90;;;;;;5089872;27;20058;-67
2023/10/26 04:19:24;;;;;;;1.65;0.70;;;9.20;99.90;;;;;;5095937;27;20035;-67
2023/10/26 04:21:49;;;;;;;2.25;1.65;;;9.20;99.90;;;;;;5093716;28;20542;-67
2023/10/26 04:24:15;;;;;;;1.67;1.58;;;9.10;99.90;;;;;;5093814;27;20247;-67
2023/10/26 04:26:41;;;;;;;2.17;1.38;;;9.10;99.90;;;;;;5092923;27;20032;-67
2023/10/26 04:29:07;;;;;;;6.22;1.25;;;9.10;99.90;;;;;;5106992;27;20050;-67
2023/10/26 04:31:33;;;;;;;3.20;0.88;;;9.10;99.90;;;;;;5092625;27;20036;-67
2023/10/26 04:33:59;;;;;;;3.13;1.98;;;9.00;99.90;;;;;;5091284;27;20708;-67
2023/10/26 04:36:26;;;;;;;2.53;1.45;;;8.90;99.90;;;;;;5086964;28;20050;-67
2023/10/26 04:38:51;;;;;;;3.30;1.40;;;8.90;99.90;;;;;;5093523;28;20043;-66
2023/10/26 04:41:17;;;;;;;4.45;2.17;;;9.00;99.90;;;;;;5087103;27;20084;-67
2023/10/26 04:43:42;;;;;;;2.80;2.45;;;9.10;99.90;;;;;;5091534;28;20075;-67
2023/10/26 04:46:08;;;;;;;4.03;2.05;;;9.10;99.90;;;;;;5090108;27;20525;-67
2023/10/26 04:48:35;;;;;;;3.92;2.15;;;9.10;99.90;;;;;;5094619;27;20340;-67
2023/10/26 04:51:00;;;;;;;1.77;1.58;;;9.10;99.90;;;;;;5118836;27;20048;-67
2023/10/26 04:53:26;;;;;;;1.33;1.23;;;9.00;99.90;;;;;;5095534;27;20068;-67
2023/10/26 04:55:52;;;;;;;2.53;1.48;;;9.00;99.90;;;;;;5087394;28;20066;-67
2023/10/26 04:58:18;;;;;;;2.05;1.42;;;9.00;99.90;;;;;;5089461;28;20089;-67
2023/10/26 05:00:43;;;;;;;1.75;1.65;;;9.00;99.90;;;;;;5097222;28;20051;-66
2023/10/26 05:03:09;;;;;;;2.10;1.55;;;8.90;99.90;;;;;;5084413;27;20036;-66
2023/10/26 05:05:35;;;;;;;3.25;1.45;;;8.90;99.90;;;;;;5121452;27;20466;-67
2023/10/26 05:08:01;;;;;;;2.05;1.15;;;8.90;99.90;;;;;;5084730;27;20042;-67
2023/10/26 05:10:27;;;;;;;3.70;0.98;;;8.80;99.90;;;;;;5084723;27;20031;-67
2023/10/26 05:12:53;;;;;;;2.65;1.45;;;8.80;99.90;;;;;;5082277;27;20047;-67
2023/10/26 05:15:19;;;;;;;2.65;1.15;;;8.80;99.90;;;;;;5091075;27;20101;-66
2023/10/26 05:17:45;;;;;;;1.30;0.55;;;8.80;99.90;;;;;;5114359;27;20044;-67
2023/10/26 05:20:11;;;;;;;0.40;0.40;;;8.80;99.90;;;;;;5090570;27;20039;-66
2023/10/26 05:22:36;;;;;;;2.60;1.00;;;8.80;99.90;;;;;;5092633;27;20459;-67
2023/10/26 05:25:04;;;;;;;0.73;0.73;;;8.80;99.90;;;;;;5093568;27;20033;-67
2023/10/26 05:27:33;;;;;;;0.85;0.85;;;8.80;99.90;;;;;;5091040;28;20042;-67
2023/10/26 05:29:59;;;;;;;1.65;1.02;;;8.70;99.90;;;;;;5089183;27;20035;-67
2023/10/26 05:32:26;;;;;;;1.02;0.60;;;8.70;99.90;;;;;;5094642;27;20421;-66
2023/10/26 05:34:52;;;;;;;1.08;0.68;;;8.70;99.90;;;;;;5095745;28;20051;-67
2023/10/26 05:37:19;;;;;;;0.85;0.55;;;8.70;99.90;;;;;;5116723;27;20053;-66
2023/10/26 05:39:44;;;;;;;0.50;0.28;;;8.70;99.90;;;;;;5117268;27;20097;-66
2023/10/26 05:42:10;;;;;;;1.15;0.45;;;8.70;99.90;;;;;;5090708;27;20035;-66
2023/10/26 05:44:36;;;;;;;0.98;0.20;;;8.70;99.90;;;;;;5115790;27;20039;-67
2023/10/26 05:47:01;;;;;;;0.50;0.30;;;8.70;99.90;;;;;;5089722;28;20130;-66
2023/10/26 05:49:27;;;;;;;1.55;0.63;;;8.70;99.90;;;;;;5123101;27;20047;-67
2023/10/26 05:51:53;;;;;;;0.93;0.30;;;8.60;99.90;;;;;;5086912;28;20051;-67
2023/10/26 05:54:19;;;;;;;0.90;0.90;;;8.60;99.90;;;;;;5087277;28;20424;-67
2023/10/26 05:56:45;;;;;;;0.30;0.30;;;8.60;99.90;;;;;;5086660;28;20233;-67
2023/10/26 05:59:10;;;;;;;3.53;0.82;;;8.60;99.90;;;;;;5113616;27;20095;-66
2023/10/26 06:01:36;;;;;;;0.77;0.77;;;8.60;99.90;;;;;;5069676;28;20046;-66
2023/10/26 06:04:02;;;;;;;2.42;1.20;;;8.60;99.90;;;;;;5088070;28;20032;-66
2023/10/26 06:06:27;;;;;;;1.02;0.57;;;8.50;99.90;;;;;;5082874;28;20390;-66
2023/10/26 06:08:53;;;;;;;1.33;1.25;;;8.50;99.90;;;;;;5095189;27;20078;-66
2023/10/26 06:11:18;;;;;;;1.75;1.58;;;8.50;99.90;;;;;;5086217;28;20055;-67
2023/10/26 06:13:44;;;;;;;3.72;1.98;;;8.40;99.90;;;;;;5082779;28;20028;-67
2023/10/26 06:16:13;;;;;;;2.08;1.50;;;8.50;99.90;;;;;;5072763;27;20118;-66
2023/10/26 06:18:39;;;;;;;1.65;1.42;;;8.40;99.90;;;;;;5086817;27;20047;-67
2023/10/26 06:21:05;;;;;;;2.42;1.98;;;8.40;99.90;;;;;;5087271;27;20054;-66
2023/10/26 06:23:30;;;;;;;3.53;1.27;;;8.30;99.90;;;;;;5091172;27;20143;-67
2023/10/26 06:26:00;;;;;;;1.42;1.33;;;8.30;99.90;;;;;;5104713;27;20488;-67
2023/10/26 06:28:27;;;;;;;3.30;0.80;;;8.30;99.90;;;;;;5085271;27;20032;-67
2023/10/26 06:30:53;;;;;;;4.30;2.72;;;8.30;99.90;;;;;;5104583;27;20043;-67
2023/10/26 06:33:20;;;;;;;2.70;1.35;;;8.30;99.90;;;;;;5089172;27;20039;-67
2023/10/26 06:35:46;;;;;;;1.33;0.88;;;8.30;99.90;;;;;;5084734;28;20040;-67
2023/10/26 06:38:11;;;;;;;1.40;1.30;;;8.30;99.90;;;;;;5076292;28;20036;-67
2023/10/26 06:40:37;;;;;;;2.35;1.50;;;8.30;99.90;;;;;;5072261;28;20035;-67
2023/10/26 06:43:03;;;;;;;1.75;1.15;;;8.30;99.90;;;;;;5086684;27;20043;-67
2023/10/26 06:45:29;;;;;;;3.17;0.98;;;8.30;99.90;;;;;;5079674;27;20043;-67
2023/10/26 06:47:55;;;;;;;4.78;1.75;;;8.30;99.90;;;;;;5082257;28;20035;-67
2023/10/26 06:50:22;;;;;;;0.52;0.40;;;8.30;99.90;;;;;;5087980;28;20524;-67
2023/10/26 06:52:47;;;;;;;2.65;0.85;;;8.40;99.90;;;;;;5116510;27;20040;-67
2023/10/26 06:55:16;;;;;;;1.55;0.55;;;8.40;99.90;;;;;;5085743;28;20463;-67
2023/10/26 06:57:42;;;;;;;1.48;0.73;;;8.40;99.90;;;;;;5113909;27;20050;-67
2023/10/26 07:00:09;;;;;;;0.73;0.40;;;8.40;99.90;;;;;;5115305;27;20098;-67
2023/10/26 07:02:35;;;;;;;1.80;0.57;;;8.50;99.90;;;;;;5117932;27;20474;-67
2023/10/26 07:05:03;;;;;;;0.63;0.63;;;8.50;99.90;;;;;;5085357;28;20036;-66
2023/10/26 07:07:30;;;;;;;1.35;0.52;;;8.50;99.90;;;;;;5120883;27;20042;-66
2023/10/26 07:09:57;;;;;;;1.75;1.25;;;8.50;99.90;;;;;;5083780;28;20050;-67
2023/10/26 07:12:23;;;;;;;2.95;0.55;;;8.60;99.90;;;;;;5113524;27;20219;-67
2023/10/26 07:14:53;;;;;;;1.15;0.90;;;8.60;99.90;;;;;;5111117;27;20071;-66
2023/10/26 07:17:20;;;;;;;0.90;0.80;;;8.60;99.90;;;;;;5111897;27;20057;-66
2023/10/26 07:19:45;;;;;;;0.85;0.77;;;8.70;99.90;;;;;;5081936;28;20043;-67
2023/10/26 07:22:11;;;;;;;0.20;0.20;;;8.70;99.90;;;;;;5100983;28;20035;-66
2023/10/26 07:24:36;;;;;;;0.25;0.25;;;8.70;99.90;;;;;;5084755;28;20101;-66
2023/10/26 07:27:03;;;;;;;0.45;0.45;;;8.70;99.90;;;;;;5064906;27;20035;-67
2023/10/26 07:29:28;;;;;;;1.67;0.68;;;8.70;99.90;;;;;;5084076;28;20081;-66
2023/10/26 07:31:55;;;;;;;1.15;0.50;;;8.80;99.90;;;;;;5082604;28;20052;-66
2023/10/26 07:34:20;;;;;;;0.30;0.20;;;8.70;99.90;;;;;;5083778;28;20424;-67
2023/10/26 07:36:46;;;;;;;0.40;0.40;;;8.70;99.90;;;;;;5074434;28;20047;-67
2023/10/26 07:39:11;;;;;;;1.73;0.88;;;8.80;99.90;;;;;;5111912;28;20074;-67
2023/10/26 07:41:37;;;;;;;0.47;0.47;;;8.80;99.90;;;;;;5111517;28;20478;-66
2023/10/26 07:44:03;;;;;;;1.13;1.02;;;8.90;99.90;;;;;;5081765;28;20507;-66
2023/10/26 07:46:28;;;;;;;0.95;0.70;;;8.90;99.90;;;;;;5083725;28;20119;-67
2023/10/26 07:48:54;;;;;;;1.00;0.40;;;9.00;99.90;;;;;;5114397;28;20059;-67
2023/10/26 07:51:19;;;;;;;0.77;0.50;;;8.90;99.90;;;;;;5085745;28;20497;-67
2023/10/26 07:53:45;;;;;;;0.73;0.73;;;9.00;99.90;;;;;;5081334;28;20048;-66
2023/10/26 07:56:10;;;;;;;0.88;0.63;;;9.00;99.90;;;;;;5078023;28;20039;-66
2023/10/26 07:58:36;;;;;;;1.05;0.70;;;9.00;99.90;;;;;;5077601;28;20035;-66
2023/10/26 08:01:08;;;;;;;0.63;0.63;;;9.00;99.90;;;;;;5117083;28;20046;-66
2023/10/26 08:03:34;;;;;;;;;;;9.10;99.90;;;;;;5117079;28;20081;-67
2023/10/26 08:06:03;;;;;;;2.55;0.88;;;9.10;99.90;;;;;;5069461;28;20316;-66
2023/10/26 08:08:29;;;;;;;0.88;0.60;;;9.10;99.90;;;;;;5116824;28;20038;-66
2023/10/26 08:10:56;;;;;;;1.13;0.60;;;9.20;99.90;;;;;;5085349;28;20047;-66
2023/10/26 08:13:22;;;;;;;0.28;0.20;;;9.20;99.90;;;;;;5097957;28;20039;-66
2023/10/26 08:15:48;;;;;;;0.50;0.50;;;9.40;99.90;;;;;;5085136;28;20048;-66
2023/10/26 08:18:13;;;;;;;0.45;0.45;;;9.50;99.90;;;;;;5114544;28;20424;-66
2023/10/26 08:20:40;;;;;;;0.45;0.20;;;9.60;99.90;;;;;;5066002;28;20043;-66
2023/10/26 08:23:05;;;;;;;1.10;0.65;;;9.70;99.90;;;;;;5076492;28;20053;-66
2023/10/26 08:25:36;;;;;;;1.35;0.70;;;9.70;99.90;;;;;;5118061;28;20039;-66
2023/10/26 08:28:02;;;;;;;0.52;0.30;;;9.70;99.90;;;;;;5110028;28;20047;-66
2023/10/26 08:30:27;;;;;;;1.05;0.95;;;9.80;99.90;;;;;;5111281;28;20035;-66
2023/10/26 08:32:56;;;;;;;0.55;0.55;;;9.80;99.90;;;;;;5076199;28;20512;-66
2023/10/26 08:35:22;;;;;;;1.65;0.77;;;9.80;99.90;;;;;;5079392;28;20116;-66
2023/10/26 08:37:48;;;;;;;1.27;0.63;;;9.80;99.90;;;;;;5112268;28;20040;-66
2023/10/26 08:40:13;;;;;;;0.47;0.47;;;9.90;99.90;;;;;;5081811;28;20044;-66
2023/10/26 08:42:39;;;;;;;1.00;0.45;;;10.00;99.90;;;;;;5082107;27;20043;-67
2023/10/26 08:45:12;;;;;;;0.52;0.50;;;10.10;99.90;;;;;;5087032;28;20173;-67
2023/10/26 08:47:37;;;;;;;0.75;0.75;;;10.30;99.90;;;;;;5120404;27;20044;-67
2023/10/26 08:50:04;;;;;;;7.88;1.92;;;10.40;99.90;;;;;;5080087;28;20043;-66
2023/10/26 08:52:30;;;;;;;0.73;0.73;;;10.50;99.90;;;;;;5087986;28;20432;-67
2023/10/26 08:54:56;;;;;;;1.13;0.73;;;10.60;99.90;;;;;;5099134;27;20126;-67
2023/10/26 08:57:21;;;;;;;2.70;1.08;;;10.60;99.90;;;;;;5114774;27;20051;-67
2023/10/26 08:59:47;;;;;;;1.15;1.10;;;10.70;99.90;;;;;;5097650;27;20504;-66
2023/10/26 09:02:12;;;;;;;0.45;0.45;;;10.80;99.90;;;;;;5115882;27;20047;-67
2023/10/26 09:04:38;;;;;;;1.95;1.77;;;10.80;99.90;;;;;;5084493;28;20051;-67
2023/10/26 09:07:03;;;;;;;1.75;0.82;;;10.90;99.90;;;;;;5086434;28;20115;-68
2023/10/26 09:09:43;;;;;;;3.22;1.02;;;10.90;99.90;;;;;;5115640;27;20395;-68
2023/10/26 09:12:09;;;;;;;1.17;1.00;;;11.00;99.90;;;;;;5091107;28;20077;-68
2023/10/26 09:14:35;;;;;;;0.47;0.45;;;11.00;99.90;;;;;;5089700;28;20523;-68
2023/10/26 09:17:00;;;;;;;1.13;0.73;;;11.10;99.90;;;;;;5093502;27;20398;-67
2023/10/26 09:19:37;;;;;;;0.63;0.30;;;11.20;99.90;;;;;;5080076;28;20048;-67
2023/10/26 09:22:03;;;;;;;2.03;0.95;;;11.30;99.90;;;;;;5092282;28;20180;-67
2023/10/26 09:24:29;;;;;;;1.40;1.27;;;11.30;99.90;;;;;;5122031;27;20114;-68
2023/10/26 09:27:03;;;;;;;3.88;1.10;;;11.30;99.90;;;;;;5095856;27;20078;-67
2023/10/26 09:29:42;;;;;;;2.47;0.63;;;11.40;99.90;;;;;;5117587;27;20036;-67
2023/10/26 09:32:08;;;;;;;0.85;0.70;;;11.50;99.90;;;;;;5109922;27;20032;-67
2023/10/26 09:34:41;;;;;;;2.42;1.20;;;11.50;99.90;;;;;;5082726;28;20498;-68
2023/10/26 09:37:08;;;;;;;1.58;1.05;;;11.60;99.90;;;;;;5072792;27;20063;-67
2023/10/26 09:39:36;;;;;;;2.08;0.55;;;11.50;99.90;;;;;;5086587;27;20048;-68
2023/10/26 09:42:02;;;;;;;1.65;0.73;;;11.50;99.90;;;;;;5088315;27;20047;-67
2023/10/26 09:44:29;;;;;;;0.90;0.90;;;11.50;99.90;;;;;;5086067;27;20535;-68
2023/10/26 09:46:55;;;;;;;2.55;1.48;;;11.60;99.90;;;;;;5087479;28;20035;-67
2023/10/26 09:49:26;;;;;;;2.63;1.30;;;11.70;99.90;;;;;;5085237;28;20086;-67
2023/10/26 09:51:53;;;;;;;0.35;0.35;;;11.80;99.90;;;;;;5116180;27;20058;-67
2023/10/26 09:54:20;;;;;;;3.22;0.90;;;11.90;99.90;;;;;;5083515;27;20096;-67
2023/10/26 09:56:51;;;;;;;0.80;0.80;;;11.90;99.90;;;;;;5114668;27;20089;-68
2023/10/26 09:59:18;;;;;;;1.40;1.25;;;12.00;99.90;;;;;;5104225;28;20048;-68
2023/10/26 10:01:45;;;;;;;3.83;2.17;;;12.00;99.90;;;;;;5064604;28;20078;-68
2023/10/26 10:04:11;;;;;;;1.83;1.50;;;12.10;99.90;;;;;;5085431;28;20032;-67
2023/10/26 10:06:54;;;;;;;1.40;0.50;;;12.10;99.90;;;;;;5084526;28;20048;-67
2023/10/26 10:09:23;;;;;;;2.25;1.65;;;12.10;99.90;;;;;;5068703;28;20046;-67
2023/10/26 10:12:15;;;;;;;1.27;1.17;;;12.10;99.90;;;;;;5069827;28;20048;-68
2023/10/26 10:14:50;;;;;;;1.55;0.63;;;12.20;99.90;;;;;;5083087;28;20052;-67
2023/10/26 10:17:18;;;;;;;2.05;1.27;;;12.30;99.90;;;;;;5090316;28;20176;-67
2023/10/26 10:19:46;;;;;;;2.38;0.85;;;12.30;99.90;;;;;;5112967;27;20035;-68
2023/10/26 10:22:46;;;;;;;2.28;1.45;;;12.40;99.90;;;;;;5086846;27;20500;-67
2023/10/26 10:25:13;;;;;;;1.55;1.45;;;12.40;99.90;;;;;;5110832;27;20043;-68
2023/10/26 10:27:59;;;;;;;3.63;1.23;;;12.50;99.90;;;;;;5081917;27;20127;-68
2023/10/26 10:30:31;;;;;;;3.55;2.05;;;12.50;99.90;;;;;;5081050;28;20832;-67
2023/10/26 10:32:57;;;;;;;4.40;1.80;;;12.50;99.90;;;;;;5081827;28;20051;-67
2023/10/26 10:35:48;;;;;;;4.38;1.30;;;12.50;99.90;;;;;;5087631;27;20032;-68
2023/10/26 10:38:14;;;;;;;3.58;2.25;;;12.50;99.90;;;;;;5117615;27;20398;-68
2023/10/26 10:40:40;;;;;;;2.78;1.67;;;12.40;99.90;;;;;;5113596;27;20035;-68
2023/10/26 10:43:06;;;;;;;2.85;2.15;;;12.30;99.90;;;;;;5088922;28;20043;-68
2023/10/26 10:45:32;;;;;;;2.08;1.45;;;12.20;99.90;;;;;;5089010;28;20481;-68
2023/10/26 10:47:57;;;;;;;5.25;2.03;;;12.10;99.90;;;;;;5098598;27;20043;-68
2023/10/26 10:50:25;;;;;;;3.17;1.23;;;12.10;99.90;;;;;;5083536;28;20042;-68
2023/10/26 10:52:55;;;;;;;6.18;1.50;;;12.00;99.90;;;;;;5076101;28;20494;-68
2023/10/26 10:55:28;;;;;;;4.40;0.73;;;12.00;99.90;;;;;;5086273;28;20478;-68
2023/10/26 10:58:01;;;;;;;4.20;1.58;;;12.00;99.90;;;;;;5069229;28;20047;-68
2023/10/26 11:00:41;;;;;;;4.28;1.85;;;12.00;99.90;;;;;;5085379;28;20036;-67
2023/10/26 11:03:07;;;;;;;1.02;0.60;;;12.10;99.90;;;;;;5125839;27;20541;-67
2023/10/26 11:05:40;;;;;;;5.68;1.85;;;12.10;99.90;;;;;;5082756;28;20063;-67
2023/10/26 11:08:09;;;;;;;1.75;1.45;;;12.10;99.90;;;;;;5079785;28;20051;-68
2023/10/26 11:10:35;;;;;;;3.45;1.80;;;12.00;99.90;;;;;;5087738;28;20024;-68
2023/10/26 11:13:01;;;;;;;2.45;1.38;;;12.00;99.90;;;;;;5101673;28;20425;-68
2023/10/26 11:15:37;;;;;;;2.78;1.88;;;12.00;99.90;;;;;;5094199;28;20044;-68
2023/10/26 11:18:04;;;;;;;1.30;1.02;;;12.00;99.90;;;;;;5082506;28;20055;-68
2023/10/26 11:20:41;;;;;;;1.13;0.63;;;12.00;99.90;;;;;;5088321;28;20070;-68
2023/10/26 11:23:09;;;;;;;1.88;1.40;;;12.10;99.90;;;;;;5113475;27;20044;-67
2023/10/26 11:25:35;;;;;;;3.30;1.30;;;12.20;99.90;;;;;;5089413;28;20043;-68
2023/10/26 11:28:01;;;;;;;5.05;2.28;;;12.30;99.90;;;;;;5087573;28;20038;-67
2023/10/26 11:30:27;;;;;;;2.55;1.80;;;12.40;99.90;;;;;;5120195;27;20032;-67
2023/10/26 11:32:53;;;;;;;4.25;2.40;;;12.30;99.90;;;;;;5087556;28;20054;-68
2023/10/26 11:35:18;;;;;;;1.67;0.63;;;12.20;99.90;;;;;;5086150;28;20059;-69
2023/10/26 11:37:48;;;;;;;1.30;1.20;;;12.20;99.90;;;;;;5090144;28;20048;-68
2023/10/26 11:40:16;;;;;;;2.35;1.45;;;12.10;99.90;;;;;;5075778;28;20047;-67
2023/10/26 11:42:53;;;;;;;4.13;1.60;;;12.10;99.90;;;;;;5103516;28;20122;-68
2023/10/26 11:45:25;;;;;;;0.63;0.50;;;12.10;99.90;;;;;;5087859;28;20040;-68
2023/10/26 11:47:53;;;;;;;1.73;1.55;;;12.00;99.90;;;;;;5087516;28;20032;-68
2023/10/26 11:50:27;;;;;;;0.65;0.47;;;12.00;99.90;;;;;;5113056;28;20040;-68
2023/10/26 11:52:54;;;;;;;0.80;0.45;;;12.00;99.90;;;;;;5111147;28;20028;-68
2023/10/26 11:55:21;;;;;;;0.85;0.82;;;12.00;99.90;;;;;;5082958;28;20039;-68
2023/10/26 11:57:47;;;;;;;1.10;0.93;;;11.90;99.90;;;;;;5077791;28;20065;-68
2023/10/26 12:00:14;;;;;;;0.95;0.50;;;11.80;99.90;;;;;;5079906;28;20331;-68
2023/10/26 12:02:41;;;;;;;1.70;0.75;;;11.80;99.90;;;;;;5087419;28;20035;-68
2023/10/26 12:05:07;;;;;;;0.77;0.75;;;11.80;99.90;;;;;;5110193;28;20047;-69
2023/10/26 12:07:33;;;;;;;0.30;0.30;;;11.80;99.90;;;;;;5090149;28;20028;-68
2023/10/26 12:10:02;;;;;;;0.95;0.95;;;11.80;99.90;;;;;;5077402;28;20035;-68
2023/10/26 12:12:27;;;;;;;1.27;0.50;;;11.80;99.90;;;;;;5082985;28;20334;-68
2023/10/26 12:14:53;;;;;;;0.55;0.47;;;11.80;99.90;;;;;;5084338;28;20398;-67
2023/10/26 12:17:18;;;;;;;0.50;0.50;;;11.80;99.90;;;;;;5086317;28;20067;-67
2023/10/26 12:19:44;;;;;;;2.28;0.88;;;11.80;99.90;;;;;;5087677;28;20043;-68
2023/10/26 12:22:09;;;;;;;0.68;0.68;;;11.80;99.90;;;;;;5084353;28;20084;-67
2023/10/26 12:24:36;;;;;;;0.13;0.13;;;11.90;99.90;;;;;;5086599;28;20128;-68
2023/10/26 12:27:02;;;;;;;1.35;1.25;;;11.90;99.90;;;;;;5123974;27;20046;-68
2023/10/26 12:29:28;;;;;;;0.98;0.52;;;11.80;99.90;;;;;;5092390;27;20504;-67
2023/10/26 12:31:54;;;;;;;0.90;0.88;;;11.80;99.90;;;;;;5091985;28;20402;-67
2023/10/26 12:34:20;;;;;;;0.70;0.40;;;11.80;99.90;;;;;;5091324;28;20036;-68
2023/10/26 12:36:46;;;;;;;1.30;0.73;;;11.80;99.90;;;;;;5088173;28;20036;-67
2023/10/26 12:39:12;;;;;;;1.10;0.77;;;11.80;99.90;;;;;;5120885;27;20542;-67
2023/10/26 12:41:37;;;;;;;0.52;0.43;;;11.80;99.90;;;;;;5092488;28;20036;-68
2023/10/26 12:44:03;;;;;;;0.43;0.43;;;11.80;99.90;;;;;;5091988;28;20059;-67
2023/10/26 12:46:29;;;;;;;0.82;0.40;;;11.90;99.90;;;;;;5085399;27;20040;-67
2023/10/26 12:48:55;;;;;;;0.10;0.10;;;11.90;99.90;;;;;;5088667;28;20040;-68
2023/10/26 12:51:20;;;;;;;0.30;0.30;;;12.00;99.90;;;;;;5088503;28;20036;-68